sensor_id;sensor_type;location;lat;lon;timestamp;P1;durP1;ratioP1;P2;durP2;ratioP2
65924;SDS011;66010;52.084;5.412;2022-12-29T00:01:36;3.15;;;1.50;;
65924;SDS011;66010;52.084;5.412;2022-12-29T00:04:03;2.78;;;1.20;;
65924;SDS011;66010;52.084;5.412;2022-12-29T00:06:35;1.35;;;1.20;;
65924;SDS011;66010;52.084;5.412;2022-12-29T00:09:01;3.58;;;1.50;;
65924;SDS011;66010;52.084;5.412;2022-12-29T00:11:27;2.25;;;1.20;;
65924;SDS011;66010;52.084;5.412;2022-12-29T00:13:54;2.75;;;1.40;;
65924;SDS011;66010;52.084;5.412;2022-12-29T00:16:43;3.40;;;1.60;;
65924;SDS011;66010;52.084;5.412;2022-12-29T00:19:10;2.40;;;1.25;;
65924;SDS011;66010;52.084;5.412;2022-12-29T00:21:58;2.20;;;1.20;;
65924;SDS011;66010;52.084;5.412;2022-12-29T00:24:43;1.95;;;1.20;;
65924;SDS011;66010;52.084;5.412;2022-12-29T00:27:29;2.08;;;1.30;;
65924;SDS011;66010;52.084;5.412;2022-12-29T00:30:15;1.98;;;1.10;;
65924;SDS011;66010;52.084;5.412;2022-12-29T00:33:00;2.65;;;1.10;;
65924;SDS011;66010;52.084;5.412;2022-12-29T00:35:46;1.52;;;1.10;;
65924;SDS011;66010;52.084;5.412;2022-12-29T00:38:13;2.33;;;1.27;;
65924;SDS011;66010;52.084;5.412;2022-12-29T00:40:58;1.48;;;1.17;;
65924;SDS011;66010;52.084;5.412;2022-12-29T00:43:43;3.67;;;1.50;;
65924;SDS011;66010;52.084;5.412;2022-12-29T00:46:29;1.88;;;1.20;;
65924;SDS011;66010;52.084;5.412;2022-12-29T00:48:55;2.38;;;1.38;;
65924;SDS011;66010;52.084;5.412;2022-12-29T00:51:41;1.88;;;1.17;;
65924;SDS011;66010;52.084;5.412;2022-12-29T00:54:07;2.15;;;1.15;;
65924;SDS011;66010;52.084;5.412;2022-12-29T00:56:34;1.75;;;0.90;;
65924;SDS011;66010;52.084;5.412;2022-12-29T00:59:01;1.75;;;1.00;;
65924;SDS011;66010;52.084;5.412;2022-12-29T01:01:27;2.05;;;1.15;;
65924;SDS011;66010;52.084;5.412;2022-12-29T01:03:55;2.25;;;1.10;;
65924;SDS011;66010;52.084;5.412;2022-12-29T01:06:29;1.90;;;1.10;;
65924;SDS011;66010;52.084;5.412;2022-12-29T01:08:55;1.48;;;1.15;;
65924;SDS011;66010;52.084;5.412;2022-12-29T01:14:07;1.80;;;1.10;;
65924;SDS011;66010;52.084;5.412;2022-12-29T01:16:35;1.58;;;1.05;;
65924;SDS011;66010;52.084;5.412;2022-12-29T01:19:03;2.53;;;1.10;;
65924;SDS011;66010;52.084;5.412;2022-12-29T01:21:29;1.83;;;1.30;;
65924;SDS011;66010;52.084;5.412;2022-12-29T01:23:56;1.42;;;1.15;;
65924;SDS011;66010;52.084;5.412;2022-12-29T01:26:22;1.75;;;1.20;;
65924;SDS011;66010;52.084;5.412;2022-12-29T01:28:50;2.10;;;1.20;;
65924;SDS011;66010;52.084;5.412;2022-12-29T01:31:17;1.83;;;1.20;;
65924;SDS011;66010;52.084;5.412;2022-12-29T01:33:43;2.58;;;1.00;;
65924;SDS011;66010;52.084;5.412;2022-12-29T01:36:12;2.60;;;1.30;;
65924;SDS011;66010;52.084;5.412;2022-12-29T01:38:39;2.95;;;1.60;;
65924;SDS011;66010;52.084;5.412;2022-12-29T01:41:06;1.48;;;1.00;;
65924;SDS011;66010;52.084;5.412;2022-12-29T01:46:07;1.27;;;1.05;;
65924;SDS011;66010;52.084;5.412;2022-12-29T01:48:39;1.95;;;1.10;;
65924;SDS011;66010;52.084;5.412;2022-12-29T01:51:05;2.50;;;1.13;;
65924;SDS011;66010;52.084;5.412;2022-12-29T01:53:32;1.70;;;1.00;;
65924;SDS011;66010;52.084;5.412;2022-12-29T01:56:00;2.15;;;1.10;;
65924;SDS011;66010;52.084;5.412;2022-12-29T01:58:29;1.73;;;1.00;;
65924;SDS011;66010;52.084;5.412;2022-12-29T02:00:58;1.60;;;1.00;;
65924;SDS011;66010;52.084;5.412;2022-12-29T02:03:26;2.40;;;1.27;;
65924;SDS011;66010;52.084;5.412;2022-12-29T02:06:02;1.35;;;0.90;;
65924;SDS011;66010;52.084;5.412;2022-12-29T02:08:30;1.52;;;1.00;;
65924;SDS011;66010;52.084;5.412;2022-12-29T02:10:58;1.27;;;0.90;;
65924;SDS011;66010;52.084;5.412;2022-12-29T02:13:24;2.75;;;1.10;;
65924;SDS011;66010;52.084;5.412;2022-12-29T02:26:38;1.52;;;1.15;;
65924;SDS011;66010;52.084;5.412;2022-12-29T02:31:40;1.92;;;1.00;;
65924;SDS011;66010;52.084;5.412;2022-12-29T02:37:08;1.35;;;1.08;;
65924;SDS011;66010;52.084;5.412;2022-12-29T02:39:45;1.55;;;0.90;;
65924;SDS011;66010;52.084;5.412;2022-12-29T02:42:30;1.85;;;0.80;;
65924;SDS011;66010;52.084;5.412;2022-12-29T02:45:02;1.77;;;1.10;;
65924;SDS011;66010;52.084;5.412;2022-12-29T02:52:37;1.38;;;0.90;;
65924;SDS011;66010;52.084;5.412;2022-12-29T02:55:05;2.28;;;1.00;;
65924;SDS011;66010;52.084;5.412;2022-12-29T02:57:33;1.80;;;0.88;;
65924;SDS011;66010;52.084;5.412;2022-12-29T03:00:03;1.38;;;0.90;;
65924;SDS011;66010;52.084;5.412;2022-12-29T03:10:40;1.92;;;0.90;;
65924;SDS011;66010;52.084;5.412;2022-12-29T03:13:12;1.73;;;0.85;;
65924;SDS011;66010;52.084;5.412;2022-12-29T03:16:45;2.15;;;0.80;;
65924;SDS011;66010;52.084;5.412;2022-12-29T03:21:28;2.33;;;0.73;;
65924;SDS011;66010;52.084;5.412;2022-12-29T03:24:17;1.10;;;0.82;;
65924;SDS011;66010;52.084;5.412;2022-12-29T03:29:12;1.73;;;1.10;;
65924;SDS011;66010;52.084;5.412;2022-12-29T03:31:41;1.98;;;0.90;;
65924;SDS011;66010;52.084;5.412;2022-12-29T03:34:09;0.80;;;0.60;;
65924;SDS011;66010;52.084;5.412;2022-12-29T03:36:38;1.08;;;0.63;;
65924;SDS011;66010;52.084;5.412;2022-12-29T03:39:10;1.27;;;1.00;;
65924;SDS011;66010;52.084;5.412;2022-12-29T03:41:38;1.70;;;1.00;;
65924;SDS011;66010;52.084;5.412;2022-12-29T03:44:06;1.75;;;0.80;;
65924;SDS011;66010;52.084;5.412;2022-12-29T03:46:33;1.13;;;0.82;;
65924;SDS011;66010;52.084;5.412;2022-12-29T03:49:01;1.70;;;0.80;;
65924;SDS011;66010;52.084;5.412;2022-12-29T03:51:27;1.83;;;0.93;;
65924;SDS011;66010;52.084;5.412;2022-12-29T03:53:54;1.63;;;0.75;;
65924;SDS011;66010;52.084;5.412;2022-12-29T03:56:21;1.20;;;0.70;;
65924;SDS011;66010;52.084;5.412;2022-12-29T03:58:48;1.83;;;0.93;;
65924;SDS011;66010;52.084;5.412;2022-12-29T04:01:28;3.40;;;1.13;;
65924;SDS011;66010;52.084;5.412;2022-12-29T04:03:55;1.25;;;0.73;;
65924;SDS011;66010;52.084;5.412;2022-12-29T04:06:21;1.17;;;0.93;;
65924;SDS011;66010;52.084;5.412;2022-12-29T04:08:53;1.60;;;0.90;;
65924;SDS011;66010;52.084;5.412;2022-12-29T04:11:21;2.10;;;0.93;;
65924;SDS011;66010;52.084;5.412;2022-12-29T04:13:53;1.38;;;0.93;;
65924;SDS011;66010;52.084;5.412;2022-12-29T04:16:23;2.30;;;0.70;;
65924;SDS011;66010;52.084;5.412;2022-12-29T04:18:49;1.30;;;0.65;;
65924;SDS011;66010;52.084;5.412;2022-12-29T04:21:16;1.20;;;0.80;;
65924;SDS011;66010;52.084;5.412;2022-12-29T04:23:43;1.10;;;0.98;;
65924;SDS011;66010;52.084;5.412;2022-12-29T04:26:11;2.00;;;1.00;;
65924;SDS011;66010;52.084;5.412;2022-12-29T04:28:48;0.88;;;0.60;;
65924;SDS011;66010;52.084;5.412;2022-12-29T04:31:25;1.33;;;0.80;;
65924;SDS011;66010;52.084;5.412;2022-12-29T04:33:51;1.10;;;0.90;;
65924;SDS011;66010;52.084;5.412;2022-12-29T04:36:18;1.65;;;1.00;;
65924;SDS011;66010;52.084;5.412;2022-12-29T04:38:44;2.47;;;0.90;;
65924;SDS011;66010;52.084;5.412;2022-12-29T04:41:11;1.48;;;0.88;;
65924;SDS011;66010;52.084;5.412;2022-12-29T04:43:38;1.95;;;0.88;;
65924;SDS011;66010;52.084;5.412;2022-12-29T04:46:10;2.58;;;0.80;;
65924;SDS011;66010;52.084;5.412;2022-12-29T04:48:58;1.20;;;0.80;;
65924;SDS011;66010;52.084;5.412;2022-12-29T04:52:05;1.38;;;0.80;;
65924;SDS011;66010;52.084;5.412;2022-12-29T04:54:32;1.67;;;0.60;;
65924;SDS011;66010;52.084;5.412;2022-12-29T04:57:10;1.85;;;0.80;;
65924;SDS011;66010;52.084;5.412;2022-12-29T04:59:38;1.90;;;0.80;;
65924;SDS011;66010;52.084;5.412;2022-12-29T05:02:05;2.58;;;1.02;;
65924;SDS011;66010;52.084;5.412;2022-12-29T05:04:33;2.03;;;0.90;;
65924;SDS011;66010;52.084;5.412;2022-12-29T05:07:00;2.05;;;0.90;;
65924;SDS011;66010;52.084;5.412;2022-12-29T05:09:27;1.45;;;0.80;;
65924;SDS011;66010;52.084;5.412;2022-12-29T05:11:54;2.10;;;0.80;;
65924;SDS011;66010;52.084;5.412;2022-12-29T05:14:20;2.08;;;0.90;;
65924;SDS011;66010;52.084;5.412;2022-12-29T05:16:47;1.70;;;0.90;;
65924;SDS011;66010;52.084;5.412;2022-12-29T05:19:14;1.75;;;0.80;;
65924;SDS011;66010;52.084;5.412;2022-12-29T05:21:40;1.10;;;0.70;;
65924;SDS011;66010;52.084;5.412;2022-12-29T05:24:07;1.90;;;0.80;;
65924;SDS011;66010;52.084;5.412;2022-12-29T05:26:34;3.38;;;0.90;;
65924;SDS011;66010;52.084;5.412;2022-12-29T05:29:08;1.42;;;0.60;;
65924;SDS011;66010;52.084;5.412;2022-12-29T05:31:35;2.28;;;0.70;;
65924;SDS011;66010;52.084;5.412;2022-12-29T05:34:03;2.53;;;0.77;;
65924;SDS011;66010;52.084;5.412;2022-12-29T05:36:30;2.90;;;0.90;;
65924;SDS011;66010;52.084;5.412;2022-12-29T05:39:03;2.22;;;0.77;;
65924;SDS011;66010;52.084;5.412;2022-12-29T05:41:29;1.38;;;0.63;;
65924;SDS011;66010;52.084;5.412;2022-12-29T05:44:16;3.83;;;0.90;;
65924;SDS011;66010;52.084;5.412;2022-12-29T05:47:06;1.63;;;0.77;;
65924;SDS011;66010;52.084;5.412;2022-12-29T05:49:42;2.67;;;0.68;;
65924;SDS011;66010;52.084;5.412;2022-12-29T05:52:20;3.15;;;0.88;;
65924;SDS011;66010;52.084;5.412;2022-12-29T05:54:47;2.35;;;0.60;;
65924;SDS011;66010;52.084;5.412;2022-12-29T05:57:17;2.97;;;0.98;;
65924;SDS011;66010;52.084;5.412;2022-12-29T05:59:48;3.33;;;0.90;;
65924;SDS011;66010;52.084;5.412;2022-12-29T06:02:15;2.58;;;0.82;;
65924;SDS011;66010;52.084;5.412;2022-12-29T06:04:42;3.13;;;0.80;;
65924;SDS011;66010;52.084;5.412;2022-12-29T06:07:09;2.25;;;0.77;;
65924;SDS011;66010;52.084;5.412;2022-12-29T06:09:40;2.95;;;0.95;;
65924;SDS011;66010;52.084;5.412;2022-12-29T06:12:07;3.03;;;0.88;;
65924;SDS011;66010;52.084;5.412;2022-12-29T06:14:36;4.53;;;1.02;;
65924;SDS011;66010;52.084;5.412;2022-12-29T06:17:03;2.85;;;0.85;;
65924;SDS011;66010;52.084;5.412;2022-12-29T06:19:31;1.02;;;0.77;;
65924;SDS011;66010;52.084;5.412;2022-12-29T06:21:57;3.42;;;0.90;;
65924;SDS011;66010;52.084;5.412;2022-12-29T06:24:24;2.63;;;0.77;;
65924;SDS011;66010;52.084;5.412;2022-12-29T06:26:51;2.78;;;0.90;;
65924;SDS011;66010;52.084;5.412;2022-12-29T06:29:17;3.65;;;1.00;;
65924;SDS011;66010;52.084;5.412;2022-12-29T06:31:44;3.15;;;0.80;;
65924;SDS011;66010;52.084;5.412;2022-12-29T06:34:15;4.05;;;0.80;;
65924;SDS011;66010;52.084;5.412;2022-12-29T06:36:42;4.47;;;0.95;;
65924;SDS011;66010;52.084;5.412;2022-12-29T06:39:09;2.00;;;0.80;;
65924;SDS011;66010;52.084;5.412;2022-12-29T06:41:36;3.67;;;0.82;;
65924;SDS011;66010;52.084;5.412;2022-12-29T06:44:11;3.17;;;0.80;;
65924;SDS011;66010;52.084;5.412;2022-12-29T06:46:48;5.95;;;1.00;;
65924;SDS011;66010;52.084;5.412;2022-12-29T06:49:15;3.28;;;0.82;;
65924;SDS011;66010;52.084;5.412;2022-12-29T06:51:42;2.47;;;0.80;;
65924;SDS011;66010;52.084;5.412;2022-12-29T06:54:08;4.03;;;1.00;;
65924;SDS011;66010;52.084;5.412;2022-12-29T06:56:35;3.50;;;0.70;;
65924;SDS011;66010;52.084;5.412;2022-12-29T06:59:01;3.88;;;0.82;;
65924;SDS011;66010;52.084;5.412;2022-12-29T07:01:28;2.95;;;0.80;;
65924;SDS011;66010;52.084;5.412;2022-12-29T07:03:54;3.40;;;0.88;;
65924;SDS011;66010;52.084;5.412;2022-12-29T07:06:21;3.70;;;0.98;;
65924;SDS011;66010;52.084;5.412;2022-12-29T07:08:47;4.15;;;1.27;;
65924;SDS011;66010;52.084;5.412;2022-12-29T07:11:13;2.35;;;0.80;;
65924;SDS011;66010;52.084;5.412;2022-12-29T07:13:40;4.35;;;1.00;;
65924;SDS011;66010;52.084;5.412;2022-12-29T07:16:07;2.00;;;0.70;;
65924;SDS011;66010;52.084;5.412;2022-12-29T07:18:34;5.63;;;1.30;;
65924;SDS011;66010;52.084;5.412;2022-12-29T07:21:00;1.92;;;0.88;;
65924;SDS011;66010;52.084;5.412;2022-12-29T07:23:27;4.50;;;1.00;;
65924;SDS011;66010;52.084;5.412;2022-12-29T07:26:00;3.95;;;1.17;;
65924;SDS011;66010;52.084;5.412;2022-12-29T07:28:26;4.30;;;0.88;;
65924;SDS011;66010;52.084;5.412;2022-12-29T07:30:53;2.08;;;0.80;;
65924;SDS011;66010;52.084;5.412;2022-12-29T07:33:19;2.78;;;0.93;;
65924;SDS011;66010;52.084;5.412;2022-12-29T07:35:46;1.40;;;0.80;;
65924;SDS011;66010;52.084;5.412;2022-12-29T07:38:12;2.30;;;0.60;;
65924;SDS011;66010;52.084;5.412;2022-12-29T07:40:39;3.60;;;1.02;;
65924;SDS011;66010;52.084;5.412;2022-12-29T07:43:05;2.97;;;1.00;;
65924;SDS011;66010;52.084;5.412;2022-12-29T07:45:38;3.30;;;1.02;;
65924;SDS011;66010;52.084;5.412;2022-12-29T07:48:07;3.15;;;0.98;;
65924;SDS011;66010;52.084;5.412;2022-12-29T07:50:34;4.00;;;0.80;;
65924;SDS011;66010;52.084;5.412;2022-12-29T07:53:01;3.60;;;0.93;;
65924;SDS011;66010;52.084;5.412;2022-12-29T07:55:27;4.90;;;1.00;;
65924;SDS011;66010;52.084;5.412;2022-12-29T07:57:54;4.95;;;1.00;;
65924;SDS011;66010;52.084;5.412;2022-12-29T08:00:20;3.30;;;0.90;;
65924;SDS011;66010;52.084;5.412;2022-12-29T08:02:47;2.95;;;0.80;;
65924;SDS011;66010;52.084;5.412;2022-12-29T08:05:13;2.25;;;0.80;;
65924;SDS011;66010;52.084;5.412;2022-12-29T08:12:34;3.75;;;0.90;;
65924;SDS011;66010;52.084;5.412;2022-12-29T08:15:00;4.70;;;0.85;;
65924;SDS011;66010;52.084;5.412;2022-12-29T08:17:26;3.05;;;1.00;;
65924;SDS011;66010;52.084;5.412;2022-12-29T08:19:53;3.45;;;0.88;;
65924;SDS011;66010;52.084;5.412;2022-12-29T08:22:19;3.42;;;1.00;;
65924;SDS011;66010;52.084;5.412;2022-12-29T08:24:45;3.75;;;1.10;;
65924;SDS011;66010;52.084;5.412;2022-12-29T08:27:12;3.65;;;1.10;;
65924;SDS011;66010;52.084;5.412;2022-12-29T08:29:46;2.55;;;0.90;;
65924;SDS011;66010;52.084;5.412;2022-12-29T08:32:12;2.88;;;0.90;;
65924;SDS011;66010;52.084;5.412;2022-12-29T08:34:39;3.10;;;0.90;;
65924;SDS011;66010;52.084;5.412;2022-12-29T08:37:05;3.95;;;1.00;;
65924;SDS011;66010;52.084;5.412;2022-12-29T08:39:32;4.05;;;0.82;;
65924;SDS011;66010;52.084;5.412;2022-12-29T08:41:58;3.78;;;1.10;;
65924;SDS011;66010;52.084;5.412;2022-12-29T08:44:25;5.00;;;1.10;;
65924;SDS011;66010;52.084;5.412;2022-12-29T08:46:51;5.00;;;1.10;;
65924;SDS011;66010;52.084;5.412;2022-12-29T08:49:18;2.95;;;1.10;;
65924;SDS011;66010;52.084;5.412;2022-12-29T08:51:44;3.40;;;0.90;;
65924;SDS011;66010;52.084;5.412;2022-12-29T08:54:10;3.08;;;1.15;;
65924;SDS011;66010;52.084;5.412;2022-12-29T08:56:38;1.63;;;0.80;;
65924;SDS011;66010;52.084;5.412;2022-12-29T08:59:04;3.80;;;1.10;;
65924;SDS011;66010;52.084;5.412;2022-12-29T09:01:31;3.95;;;0.90;;
65924;SDS011;66010;52.084;5.412;2022-12-29T09:03:57;3.33;;;1.00;;
65924;SDS011;66010;52.084;5.412;2022-12-29T09:06:43;2.00;;;0.80;;
65924;SDS011;66010;52.084;5.412;2022-12-29T09:09:09;3.10;;;1.00;;
65924;SDS011;66010;52.084;5.412;2022-12-29T09:11:36;3.17;;;1.20;;
65924;SDS011;66010;52.084;5.412;2022-12-29T09:14:03;2.35;;;1.02;;
65924;SDS011;66010;52.084;5.412;2022-12-29T09:16:29;3.08;;;1.00;;
65924;SDS011;66010;52.084;5.412;2022-12-29T09:18:56;3.35;;;1.00;;
65924;SDS011;66010;52.084;5.412;2022-12-29T09:21:22;5.68;;;1.20;;
65924;SDS011;66010;52.084;5.412;2022-12-29T09:23:48;3.55;;;1.10;;
65924;SDS011;66010;52.084;5.412;2022-12-29T09:26:15;4.22;;;1.30;;
65924;SDS011;66010;52.084;5.412;2022-12-29T09:28:41;3.10;;;0.80;;
65924;SDS011;66010;52.084;5.412;2022-12-29T09:31:08;2.95;;;1.05;;
65924;SDS011;66010;52.084;5.412;2022-12-29T09:33:34;3.95;;;1.50;;
65924;SDS011;66010;52.084;5.412;2022-12-29T09:36:01;2.72;;;0.98;;
65924;SDS011;66010;52.084;5.412;2022-12-29T09:38:28;3.88;;;1.05;;
65924;SDS011;66010;52.084;5.412;2022-12-29T09:41:01;4.35;;;1.02;;
65924;SDS011;66010;52.084;5.412;2022-12-29T09:43:46;3.25;;;0.93;;
65924;SDS011;66010;52.084;5.412;2022-12-29T09:48:44;4.43;;;0.98;;
65924;SDS011;66010;52.084;5.412;2022-12-29T09:51:13;3.38;;;1.00;;
65924;SDS011;66010;52.084;5.412;2022-12-29T09:53:43;3.78;;;0.95;;
65924;SDS011;66010;52.084;5.412;2022-12-29T09:56:16;4.57;;;1.20;;
65924;SDS011;66010;52.084;5.412;2022-12-29T10:03:51;4.85;;;1.00;;
65924;SDS011;66010;52.084;5.412;2022-12-29T10:19:53;2.78;;;1.00;;
65924;SDS011;66010;52.084;5.412;2022-12-29T10:24:28;4.10;;;0.90;;
65924;SDS011;66010;52.084;5.412;2022-12-29T10:26:55;5.57;;;1.00;;
65924;SDS011;66010;52.084;5.412;2022-12-29T10:29:24;5.07;;;1.10;;
65924;SDS011;66010;52.084;5.412;2022-12-29T10:31:59;4.43;;;1.15;;
65924;SDS011;66010;52.084;5.412;2022-12-29T10:34:43;3.97;;;0.90;;
65924;SDS011;66010;52.084;5.412;2022-12-29T10:37:58;5.13;;;0.98;;
65924;SDS011;66010;52.084;5.412;2022-12-29T10:39:59;3.80;;;1.00;;
65924;SDS011;66010;52.084;5.412;2022-12-29T10:42:33;2.83;;;0.95;;
65924;SDS011;66010;52.084;5.412;2022-12-29T10:45:03;3.10;;;0.90;;
65924;SDS011;66010;52.084;5.412;2022-12-29T10:47:32;3.80;;;0.80;;
65924;SDS011;66010;52.084;5.412;2022-12-29T10:50:01;2.25;;;0.82;;
65924;SDS011;66010;52.084;5.412;2022-12-29T10:52:28;2.70;;;0.80;;
65924;SDS011;66010;52.084;5.412;2022-12-29T10:57:41;3.58;;;1.20;;
65924;SDS011;66010;52.084;5.412;2022-12-29T11:00:14;3.28;;;1.00;;
65924;SDS011;66010;52.084;5.412;2022-12-29T11:07:57;3.53;;;0.93;;
65924;SDS011;66010;52.084;5.412;2022-12-29T11:13:00;3.88;;;0.90;;
65924;SDS011;66010;52.084;5.412;2022-12-29T11:15:27;4.07;;;1.05;;
65924;SDS011;66010;52.084;5.412;2022-12-29T11:17:56;5.63;;;1.17;;
65924;SDS011;66010;52.084;5.412;2022-12-29T11:20:36;3.17;;;1.10;;
65924;SDS011;66010;52.084;5.412;2022-12-29T11:23:05;6.38;;;1.30;;
65924;SDS011;66010;52.084;5.412;2022-12-29T11:25:49;4.78;;;1.13;;
65924;SDS011;66010;52.084;5.412;2022-12-29T11:28:31;4.65;;;1.13;;
65924;SDS011;66010;52.084;5.412;2022-12-29T11:31:00;4.00;;;1.10;;
65924;SDS011;66010;52.084;5.412;2022-12-29T11:33:28;3.30;;;1.00;;
65924;SDS011;66010;52.084;5.412;2022-12-29T11:36:02;2.83;;;1.17;;
65924;SDS011;66010;52.084;5.412;2022-12-29T11:38:37;6.18;;;1.50;;
65924;SDS011;66010;52.084;5.412;2022-12-29T11:41:05;3.83;;;1.10;;
65924;SDS011;66010;52.084;5.412;2022-12-29T11:43:37;4.72;;;1.30;;
65924;SDS011;66010;52.084;5.412;2022-12-29T11:46:04;4.80;;;1.20;;
65924;SDS011;66010;52.084;5.412;2022-12-29T11:48:38;3.28;;;1.02;;
65924;SDS011;66010;52.084;5.412;2022-12-29T11:51:05;3.60;;;1.10;;
65924;SDS011;66010;52.084;5.412;2022-12-29T11:53:36;4.53;;;1.25;;
65924;SDS011;66010;52.084;5.412;2022-12-29T11:56:06;5.20;;;1.13;;
65924;SDS011;66010;52.084;5.412;2022-12-29T11:58:35;3.40;;;1.20;;
65924;SDS011;66010;52.084;5.412;2022-12-29T12:03:48;4.88;;;1.10;;
65924;SDS011;66010;52.084;5.412;2022-12-29T12:06:20;3.85;;;1.27;;
65924;SDS011;66010;52.084;5.412;2022-12-29T12:08:53;4.50;;;1.48;;
65924;SDS011;66010;52.084;5.412;2022-12-29T12:11:22;2.83;;;1.20;;
65924;SDS011;66010;52.084;5.412;2022-12-29T12:14:01;4.55;;;1.30;;
65924;SDS011;66010;52.084;5.412;2022-12-29T12:16:50;3.85;;;1.00;;
65924;SDS011;66010;52.084;5.412;2022-12-29T12:22:18;3.67;;;1.10;;
65924;SDS011;66010;52.084;5.412;2022-12-29T12:24:52;4.72;;;1.10;;
65924;SDS011;66010;52.084;5.412;2022-12-29T12:27:31;4.53;;;1.33;;
65924;SDS011;66010;52.084;5.412;2022-12-29T12:30:02;5.22;;;1.20;;
65924;SDS011;66010;52.084;5.412;2022-12-29T12:36:04;5.13;;;1.15;;
65924;SDS011;66010;52.084;5.412;2022-12-29T12:45:32;3.97;;;1.10;;
65924;SDS011;66010;52.084;5.412;2022-12-29T12:50:49;3.58;;;1.15;;
65924;SDS011;66010;52.084;5.412;2022-12-29T12:53:39;3.22;;;1.00;;
65924;SDS011;66010;52.084;5.412;2022-12-29T13:16:31;7.10;;;1.52;;
65924;SDS011;66010;52.084;5.412;2022-12-29T13:21:49;4.57;;;1.40;;
65924;SDS011;66010;52.084;5.412;2022-12-29T13:26:59;6.40;;;1.40;;
65924;SDS011;66010;52.084;5.412;2022-12-29T13:29:32;4.22;;;1.33;;
65924;SDS011;66010;52.084;5.412;2022-12-29T13:37:34;5.85;;;1.38;;
65924;SDS011;66010;52.084;5.412;2022-12-29T13:40:03;4.60;;;1.20;;
65924;SDS011;66010;52.084;5.412;2022-12-29T13:42:30;5.63;;;1.50;;
65924;SDS011;66010;52.084;5.412;2022-12-29T13:44:59;3.95;;;1.50;;
65924;SDS011;66010;52.084;5.412;2022-12-29T13:47:29;6.15;;;1.67;;
65924;SDS011;66010;52.084;5.412;2022-12-29T13:49:57;5.03;;;1.67;;
65924;SDS011;66010;52.084;5.412;2022-12-29T13:52:28;4.53;;;1.52;;
65924;SDS011;66010;52.084;5.412;2022-12-29T13:57:41;5.88;;;1.58;;
65924;SDS011;66010;52.084;5.412;2022-12-29T14:00:13;4.75;;;1.50;;
65924;SDS011;66010;52.084;5.412;2022-12-29T14:07:46;6.07;;;1.48;;
65924;SDS011;66010;52.084;5.412;2022-12-29T14:13:15;5.60;;;1.50;;
65924;SDS011;66010;52.084;5.412;2022-12-29T14:15:44;4.00;;;1.42;;
65924;SDS011;66010;52.084;5.412;2022-12-29T14:18:13;5.65;;;1.60;;
65924;SDS011;66010;52.084;5.412;2022-12-29T14:20:49;5.80;;;1.42;;
65924;SDS011;66010;52.084;5.412;2022-12-29T14:23:26;6.15;;;1.50;;
65924;SDS011;66010;52.084;5.412;2022-12-29T14:25:54;5.03;;;1.30;;
65924;SDS011;66010;52.084;5.412;2022-12-29T14:28:55;5.65;;;1.58;;
65924;SDS011;66010;52.084;5.412;2022-12-29T14:33:41;3.42;;;1.30;;
65924;SDS011;66010;52.084;5.412;2022-12-29T14:36:27;4.97;;;1.33;;
65924;SDS011;66010;52.084;5.412;2022-12-29T14:43:56;5.10;;;1.35;;
65924;SDS011;66010;52.084;5.412;2022-12-29T14:46:24;5.40;;;1.60;;
65924;SDS011;66010;52.084;5.412;2022-12-29T14:48:54;5.38;;;1.63;;
65924;SDS011;66010;52.084;5.412;2022-12-29T14:51:39;4.05;;;1.58;;
65924;SDS011;66010;52.084;5.412;2022-12-29T14:57:05;4.30;;;1.45;;
65924;SDS011;66010;52.084;5.412;2022-12-29T14:59:33;5.15;;;1.33;;
65924;SDS011;66010;52.084;5.412;2022-12-29T15:02:01;4.28;;;1.10;;
65924;SDS011;66010;52.084;5.412;2022-12-29T15:04:32;4.05;;;1.40;;
65924;SDS011;66010;52.084;5.412;2022-12-29T15:06:59;4.65;;;1.40;;
65924;SDS011;66010;52.084;5.412;2022-12-29T15:09:30;7.20;;;1.80;;
65924;SDS011;66010;52.084;5.412;2022-12-29T15:12:07;5.38;;;1.52;;
65924;SDS011;66010;52.084;5.412;2022-12-29T15:14:59;3.65;;;1.30;;
65924;SDS011;66010;52.084;5.412;2022-12-29T15:17:27;5.47;;;1.65;;
65924;SDS011;66010;52.084;5.412;2022-12-29T15:22:20;3.60;;;1.42;;
65924;SDS011;66010;52.084;5.412;2022-12-29T15:24:47;4.55;;;1.30;;
65924;SDS011;66010;52.084;5.412;2022-12-29T15:27:16;4.63;;;1.33;;
65924;SDS011;66010;52.084;5.412;2022-12-29T15:29:45;4.32;;;1.40;;
65924;SDS011;66010;52.084;5.412;2022-12-29T15:34:42;3.53;;;1.20;;
65924;SDS011;66010;52.084;5.412;2022-12-29T15:37:08;4.68;;;1.30;;
65924;SDS011;66010;52.084;5.412;2022-12-29T15:39:35;4.72;;;1.58;;
65924;SDS011;66010;52.084;5.412;2022-12-29T15:42:13;3.78;;;1.33;;
65924;SDS011;66010;52.084;5.412;2022-12-29T15:44:43;5.07;;;1.30;;
65924;SDS011;66010;52.084;5.412;2022-12-29T15:47:15;3.47;;;1.02;;
65924;SDS011;66010;52.084;5.412;2022-12-29T15:49:42;3.30;;;1.40;;
65924;SDS011;66010;52.084;5.412;2022-12-29T15:52:10;4.13;;;1.10;;
65924;SDS011;66010;52.084;5.412;2022-12-29T15:54:36;4.53;;;1.48;;
65924;SDS011;66010;52.084;5.412;2022-12-29T15:57:04;4.70;;;1.60;;
65924;SDS011;66010;52.084;5.412;2022-12-29T15:59:44;4.45;;;1.30;;
65924;SDS011;66010;52.084;5.412;2022-12-29T16:02:11;5.40;;;1.50;;
65924;SDS011;66010;52.084;5.412;2022-12-29T16:04:38;5.68;;;1.55;;
65924;SDS011;66010;52.084;5.412;2022-12-29T16:07:29;3.78;;;1.30;;
65924;SDS011;66010;52.084;5.412;2022-12-29T16:10:20;4.70;;;1.30;;
65924;SDS011;66010;52.084;5.412;2022-12-29T16:12:47;5.45;;;1.40;;
65924;SDS011;66010;52.084;5.412;2022-12-29T16:15:14;4.72;;;1.50;;
65924;SDS011;66010;52.084;5.412;2022-12-29T16:17:47;5.30;;;1.48;;
65924;SDS011;66010;52.084;5.412;2022-12-29T16:22:41;4.55;;;1.20;;
65924;SDS011;66010;52.084;5.412;2022-12-29T16:25:15;6.72;;;1.38;;
65924;SDS011;66010;52.084;5.412;2022-12-29T16:27:42;4.50;;;1.30;;
65924;SDS011;66010;52.084;5.412;2022-12-29T16:32:45;3.15;;;1.27;;
65924;SDS011;66010;52.084;5.412;2022-12-29T16:35:19;4.57;;;1.60;;
65924;SDS011;66010;52.084;5.412;2022-12-29T16:37:46;3.05;;;1.45;;
65924;SDS011;66010;52.084;5.412;2022-12-29T16:40:23;3.65;;;1.40;;
65924;SDS011;66010;52.084;5.412;2022-12-29T16:42:50;4.82;;;1.40;;
65924;SDS011;66010;52.084;5.412;2022-12-29T16:47:47;4.20;;;1.33;;
65924;SDS011;66010;52.084;5.412;2022-12-29T16:55:15;4.05;;;1.40;;
65924;SDS011;66010;52.084;5.412;2022-12-29T16:57:42;4.55;;;1.40;;
65924;SDS011;66010;52.084;5.412;2022-12-29T17:00:29;4.43;;;1.40;;
65924;SDS011;66010;52.084;5.412;2022-12-29T17:02:58;4.10;;;1.20;;
65924;SDS011;66010;52.084;5.412;2022-12-29T17:05:26;3.55;;;1.30;;
65924;SDS011;66010;52.084;5.412;2022-12-29T17:07:53;3.72;;;1.35;;
65924;SDS011;66010;52.084;5.412;2022-12-29T17:10:21;5.65;;;1.83;;
65924;SDS011;66010;52.084;5.412;2022-12-29T17:13:07;3.88;;;1.40;;
65924;SDS011;66010;52.084;5.412;2022-12-29T17:15:33;3.47;;;1.30;;
65924;SDS011;66010;52.084;5.412;2022-12-29T17:18:00;6.00;;;1.67;;
65924;SDS011;66010;52.084;5.412;2022-12-29T17:20:28;3.92;;;1.40;;
65924;SDS011;66010;52.084;5.412;2022-12-29T17:22:55;4.30;;;1.48;;
65924;SDS011;66010;52.084;5.412;2022-12-29T17:25:29;5.07;;;1.80;;
65924;SDS011;66010;52.084;5.412;2022-12-29T17:28:00;4.18;;;1.27;;
65924;SDS011;66010;52.084;5.412;2022-12-29T17:30:28;5.43;;;1.52;;
65924;SDS011;66010;52.084;5.412;2022-12-29T17:33:06;3.40;;;1.23;;
65924;SDS011;66010;52.084;5.412;2022-12-29T17:35:35;3.00;;;1.25;;
65924;SDS011;66010;52.084;5.412;2022-12-29T17:38:01;6.10;;;1.50;;
65924;SDS011;66010;52.084;5.412;2022-12-29T17:40:28;4.97;;;1.40;;
65924;SDS011;66010;52.084;5.412;2022-12-29T17:42:56;4.10;;;1.35;;
65924;SDS011;66010;52.084;5.412;2022-12-29T17:45:24;4.68;;;1.50;;
65924;SDS011;66010;52.084;5.412;2022-12-29T17:47:50;4.43;;;1.58;;
65924;SDS011;66010;52.084;5.412;2022-12-29T17:50:22;3.95;;;1.40;;
65924;SDS011;66010;52.084;5.412;2022-12-29T17:52:52;5.22;;;1.48;;
65924;SDS011;66010;52.084;5.412;2022-12-29T17:55:26;3.10;;;1.30;;